Impacts TAF Board
For situational awareness. Not to be used for flight planning purposes.
IDs:

KDAB - Daytona Beach Intl, FL, US

Issued at 1736 UTC 30 Jun 2022
Updated at 2234 UTC 30 Jun 2022
Potential Impact None Slight Moderate High
Time2153Z 30/23Z 01/00Z 01/01Z 01/02Z 01/03Z 01/04Z 01/05Z 01/06Z 01/07Z 01/08Z 01/09Z 01/10Z 01/11Z>>
Type OBS PRVL PRVL PRVL PRVL PRVL PRVL PRVL PRVL PRVL PRVL PRVL PRVL PRVL
VIS 10 >6 >6 >6 >6 >6 >6 >6 >6 >6 >6 >6 >6 >6
CIG 55 40 140 140 140 140 140 140 140 140 140 140 140 140
Cover BKN OVC BKN BKN BKN BKN BKN BKN BKN BKN BKN BKN BKN BKN
FltCat VFR VFR VFR VFR VFR VFR VFR VFR VFR VFR VFR VFR VFR VFR
WX -- VCTS VCSH VCSH VCSH VCSH -- -- -- -- -- -- -- --
WDir 200 90 150 150 150 150 160 160 160 160 160 160 160 160
WSpd 6 7 3 3 3 3 4 4 4 4 4 4 4 4
WGst -- -- -- -- -- -- -- -- -- -- -- -- -- --
WSHgt -- -- -- -- -- -- -- -- -- -- -- -- -- --
WSDir -- -- -- -- -- -- -- -- -- -- -- -- -- --
WSSpd -- -- -- -- -- -- -- -- -- -- -- -- -- --
Raw TAF
KDAB 301736Z 3018/0118 09007KT P6SM VCTS SCT030CB BKN040 OVC120
  TEMPO 3018/3019 3SM TSRA BKN030CB
  FM010000 15003KT P6SM VCSH SCT080 BKN140
  FM010400 16004KT P6SM SCT080 BKN140
  FM011400 16006KT P6SM SCT035 SCT080 BKN200


Raw METAR
KDAB 302153Z 20006KT 10SM SCT023 SCT036 BKN055 27/23 A3008 RMK AO2 LTG DSNT SE TSE50 SLP187 TS DSIPTD CB DSNT N SE S T02720233
KDAB 302053Z 08008KT 10SM TS SCT023 SCT029CB BKN050 29/23 A3010 RMK AO2 LTG DSNT S AND SW SLP191 OCNL LTGICCG ALQDS TS ALQDS MOV W 60000 T02890233 55004
KDAB 301953Z 07006KT 10SM TS SCT027CB BKN033 BKN050 29/23 A3009 RMK AO2 LTG DSNT SW AND NW SLP187 OCNL LTGCG SW-NW TS SW-NW MOV W T02890228

METAR Board
Radar Display
Forecast Discussion
For situational awareness. Not to be used for flight planning purposes.